createdAt,value
2018-07-07T00:01:39.942Z,20.30
2018-07-07T00:04:09.058Z,19.83
2018-07-07T00:06:38.169Z,20.77
2018-07-07T00:09:07.438Z,17.80
2018-07-07T00:11:36.550Z,18.67
2018-07-07T00:14:05.788Z,20.27
2018-07-07T00:16:35.349Z,19.47
2018-07-07T00:19:04.548Z,18.40
2018-07-07T00:21:33.662Z,19.73
2018-07-07T00:24:02.800Z,20.97
2018-07-07T00:26:32.240Z,20.37
2018-07-07T00:29:01.344Z,21.50
2018-07-07T00:31:30.441Z,19.80
2018-07-07T00:33:59.630Z,21.17
2018-07-07T00:36:28.704Z,19.27
2018-07-07T00:38:57.800Z,18.93
2018-07-07T00:41:26.953Z,18.90
2018-07-07T00:43:56.088Z,19.87
2018-07-07T00:46:25.183Z,22.10
2018-07-07T00:48:54.471Z,23.20
2018-07-07T00:51:23.221Z,21.07
2018-07-07T00:53:52.246Z,19.80
2018-07-07T00:56:21.723Z,21.03
2018-07-07T00:58:50.960Z,21.90
2018-07-07T01:01:20.242Z,21.00
2018-07-07T01:03:49.452Z,22.70
2018-07-07T01:06:26.020Z,23.57
2018-07-07T01:08:54.929Z,23.90
2018-07-07T01:11:23.966Z,24.77
2018-07-07T01:13:53.225Z,26.87
2018-07-07T01:16:22.538Z,28.10
2018-07-07T01:18:51.623Z,27.77
2018-07-07T01:21:20.764Z,26.57
2018-07-07T01:23:49.998Z,24.30
2018-07-07T01:26:19.113Z,25.70
2018-07-07T01:28:48.257Z,23.83
2018-07-07T01:31:17.500Z,25.80
2018-07-07T01:33:46.243Z,25.97
2018-07-07T01:36:15.296Z,26.73
2018-07-07T01:38:44.503Z,27.30
2018-07-07T01:41:13.610Z,26.20
2018-07-07T01:43:42.738Z,27.70
2018-07-07T01:46:11.904Z,28.67
2018-07-07T01:48:41.088Z,27.90
2018-07-07T01:51:10.132Z,30.33
2018-07-07T01:53:39.312Z,27.93
2018-07-07T01:56:08.416Z,28.67
2018-07-07T01:58:37.508Z,26.17
2018-07-07T02:01:06.960Z,26.50
2018-07-07T02:03:36.240Z,27.80
2018-07-07T02:06:05.000Z,27.70
2018-07-07T02:08:33.940Z,27.00
2018-07-07T02:11:03.030Z,25.87
2018-07-07T02:13:32.126Z,25.23
2018-07-07T02:16:01.460Z,26.57
2018-07-07T02:18:30.524Z,26.53
2018-07-07T02:20:59.668Z,29.40
2018-07-07T02:23:28.848Z,28.70
2018-07-07T02:25:57.936Z,27.80
2018-07-07T02:28:27.044Z,28.77
2018-07-07T02:30:56.214Z,29.70
2018-07-07T02:33:25.334Z,27.87
2018-07-07T02:35:54.407Z,30.37
2018-07-07T02:38:23.589Z,29.73
2018-07-07T02:40:52.698Z,31.07
2018-07-07T02:43:21.856Z,34.53
2018-07-07T02:45:51.127Z,33.40
2018-07-07T02:48:20.210Z,34.47
2018-07-07T02:50:49.295Z,32.03
2018-07-07T02:53:18.543Z,32.70
2018-07-07T02:55:47.328Z,32.77
2018-07-07T02:58:16.383Z,26.83
2018-07-07T03:00:45.765Z,30.30
2018-07-07T03:03:14.886Z,27.53
2018-07-07T03:05:44.108Z,29.47
2018-07-07T03:08:13.357Z,31.13
2018-07-07T03:10:42.421Z,29.70
2018-07-07T03:13:11.165Z,28.67
2018-07-07T03:15:40.307Z,29.00
2018-07-07T03:18:09.451Z,27.77
2018-07-07T03:20:38.550Z,27.37
2018-07-07T03:23:07.776Z,27.30
2018-07-07T03:25:36.883Z,27.67
2018-07-07T03:28:06.020Z,26.47
2018-07-07T03:30:35.169Z,24.93
2018-07-07T03:33:04.275Z,25.53
2018-07-07T03:35:33.028Z,26.60
2018-07-07T03:38:02.564Z,25.40
2018-07-07T03:40:31.593Z,25.13
2018-07-07T03:43:00.681Z,23.73
2018-07-07T03:45:29.905Z,23.70
2018-07-07T03:47:59.059Z,23.93
2018-07-07T03:50:28.179Z,23.47
2018-07-07T03:52:57.723Z,23.93
2018-07-07T03:55:26.790Z,24.00
2018-07-07T03:57:55.889Z,23.70
2018-07-07T04:00:25.125Z,25.53
2018-07-07T04:02:54.267Z,24.10
2018-07-07T04:05:23.361Z,24.13
2018-07-07T04:07:53.091Z,23.27
2018-07-07T04:10:22.211Z,23.47
2018-07-07T04:12:51.301Z,24.17
2018-07-07T04:15:20.541Z,24.67
2018-07-07T04:17:49.307Z,23.77
2018-07-07T04:20:17.963Z,22.33
2018-07-07T04:22:47.099Z,21.73
2018-07-07T04:25:16.195Z,20.80
2018-07-07T04:27:44.917Z,20.57
2018-07-07T04:30:14.021Z,21.83
2018-07-07T04:32:43.225Z,22.67
2018-07-07T04:35:12.342Z,24.00
2018-07-07T04:37:41.693Z,24.53
2018-07-07T04:40:10.891Z,21.00
2018-07-07T04:42:39.989Z,23.93
2018-07-07T04:45:09.223Z,23.27
2018-07-07T04:47:38.353Z,25.17
2018-07-07T04:50:07.119Z,23.07
2018-07-07T04:52:36.606Z,24.40
2018-07-07T04:55:05.789Z,21.90
2018-07-07T04:57:34.870Z,19.80
2018-07-07T05:00:04.265Z,20.50
2018-07-07T05:02:33.393Z,20.77
2018-07-07T05:05:02.613Z,20.67
2018-07-07T05:07:31.839Z,22.20
2018-07-07T05:10:00.677Z,23.40
2018-07-07T05:12:29.681Z,25.27
2018-07-07T05:14:58.923Z,24.90
2018-07-07T05:17:28.057Z,23.90
2018-07-07T05:19:57.155Z,22.37
2018-07-07T05:22:26.661Z,22.37
2018-07-07T05:24:55.767Z,23.50
2018-07-07T05:27:24.949Z,22.20
2018-07-07T05:29:54.590Z,21.77
2018-07-07T05:32:23.668Z,22.70
2018-07-07T05:34:52.777Z,24.33
2018-07-07T05:37:22.209Z,22.33
2018-07-07T05:39:51.281Z,23.83
2018-07-07T05:42:20.576Z,25.07
2018-07-07T05:44:50.358Z,27.10
2018-07-07T05:47:19.495Z,27.50
2018-07-07T05:49:48.590Z,26.63
2018-07-07T05:52:17.777Z,26.07
2018-07-07T05:54:46.853Z,29.07
2018-07-07T05:57:16.005Z,28.30
2018-07-07T05:59:45.219Z,29.23
2018-07-07T06:02:14.319Z,29.47
2018-07-07T06:04:43.407Z,30.87
2018-07-07T06:07:12.683Z,31.93
2018-07-07T06:09:42.055Z,32.07
2018-07-07T06:12:11.333Z,32.17
2018-07-07T06:14:40.502Z,31.90
2018-07-07T06:17:09.580Z,33.73
2018-07-07T06:19:38.765Z,32.70
2018-07-07T06:22:08.371Z,30.40
2018-07-07T06:24:37.424Z,31.63
2018-07-07T06:27:06.650Z,33.97
2018-07-07T06:29:36.225Z,33.90
2018-07-07T06:32:05.385Z,31.93
2018-07-07T06:34:34.500Z,30.30
2018-07-07T06:37:03.836Z,30.90
2018-07-07T06:39:32.941Z,32.17
2018-07-07T06:42:02.602Z,30.53
2018-07-07T06:44:31.898Z,30.73
2018-07-07T06:47:01.174Z,29.40
2018-07-07T06:49:30.250Z,30.30
2018-07-07T06:51:59.466Z,31.13
2018-07-07T06:54:28.595Z,29.47
2018-07-07T06:56:57.708Z,29.73
2018-07-07T06:59:27.194Z,31.50
2018-07-07T07:01:56.306Z,30.60
2018-07-07T07:04:25.409Z,27.93
2018-07-07T07:06:54.578Z,29.20
2018-07-07T07:09:23.681Z,30.10
2018-07-07T07:11:52.833Z,30.70
2018-07-07T07:14:22.080Z,30.27
2018-07-07T07:16:51.178Z,30.17
2018-07-07T07:19:20.226Z,28.93
2018-07-07T07:21:49.364Z,29.87
2018-07-07T07:24:18.509Z,30.70
2018-07-07T07:26:47.604Z,27.93
2018-07-07T07:29:16.835Z,27.83
2018-07-07T07:31:46.010Z,27.77
2018-07-07T07:34:14.838Z,27.87
2018-07-07T07:36:45.295Z,26.60
2018-07-07T07:39:14.465Z,27.53
2018-07-07T07:41:44.138Z,26.60
2018-07-07T07:44:12.919Z,28.20
2018-07-07T07:46:41.595Z,24.13
2018-07-07T07:49:10.617Z,25.97
2018-07-07T07:51:39.626Z,23.83
2018-07-07T07:54:08.757Z,24.43
2018-07-07T07:56:37.978Z,22.47
2018-07-07T07:59:07.103Z,23.00
2018-07-07T08:01:35.823Z,22.10
2018-07-07T08:04:05.494Z,22.80
2018-07-07T08:06:34.569Z,21.20
2018-07-07T08:09:03.984Z,21.60
2018-07-07T08:11:33.203Z,20.57
2018-07-07T08:14:02.373Z,20.53
2018-07-07T08:16:31.721Z,19.33
2018-07-07T08:19:00.851Z,20.23
2018-07-07T08:21:29.946Z,20.37
2018-07-07T08:23:59.073Z,18.73
2018-07-07T08:26:28.391Z,20.90
2018-07-07T08:28:57.504Z,22.47
2018-07-07T08:31:26.588Z,20.33
2018-07-07T08:33:55.992Z,22.73
2018-07-07T08:36:25.148Z,19.33
2018-07-07T08:38:54.214Z,20.60
2018-07-07T08:41:23.617Z,19.80
2018-07-07T08:43:52.990Z,22.07
2018-07-07T08:46:22.080Z,19.77
2018-07-07T08:48:51.503Z,18.50
2018-07-07T08:51:20.624Z,18.87
2018-07-07T08:53:49.690Z,17.77
2018-07-07T08:56:19.022Z,17.30
2018-07-07T08:58:48.098Z,16.67
2018-07-07T09:01:17.204Z,18.57
2018-07-07T09:03:46.678Z,18.83
2018-07-07T09:06:15.774Z,19.03
2018-07-07T09:08:44.882Z,18.53
2018-07-07T09:11:14.933Z,18.33
2018-07-07T09:13:43.687Z,19.20
2018-07-07T09:16:12.710Z,19.77
2018-07-07T09:18:42.422Z,19.50
2018-07-07T09:21:11.526Z,19.60
2018-07-07T09:23:40.614Z,19.27
2018-07-07T09:26:10.063Z,19.03
2018-07-07T09:28:39.257Z,20.20
2018-07-07T09:31:08.801Z,21.43
2018-07-07T09:33:38.603Z,18.00
2018-07-07T09:36:08.221Z,20.73
2018-07-07T09:38:37.331Z,17.60
2018-07-07T09:41:06.597Z,17.70
2018-07-07T09:43:35.696Z,16.37
2018-07-07T09:46:04.866Z,14.20
2018-07-07T09:48:34.012Z,15.90
2018-07-07T09:51:03.210Z,13.20
2018-07-07T09:53:32.399Z,11.17
2018-07-07T09:56:01.638Z,11.33
2018-07-07T09:58:30.770Z,11.20
2018-07-07T10:00:59.872Z,11.20
2018-07-07T10:03:29.042Z,10.70
2018-07-07T10:05:58.112Z,10.50
2018-07-07T10:08:27.220Z,10.90
2018-07-07T10:10:56.871Z,9.50
2018-07-07T10:13:25.972Z,10.23
2018-07-07T10:15:55.008Z,9.07
2018-07-07T10:18:24.241Z,10.43
2018-07-07T10:20:53.815Z,11.20
2018-07-07T10:23:22.595Z,10.40
2018-07-07T10:25:51.829Z,9.40
2018-07-07T10:28:20.954Z,8.60
2018-07-07T10:30:50.047Z,8.13
2018-07-07T10:33:19.688Z,8.10
2018-07-07T10:35:48.508Z,7.80
2018-07-07T10:38:17.561Z,8.20
2018-07-07T10:40:46.705Z,7.60
2018-07-07T10:43:15.813Z,7.57
2018-07-07T10:45:44.980Z,7.40
2018-07-07T10:48:14.165Z,7.40
2018-07-07T10:50:43.282Z,5.97
2018-07-07T10:53:12.362Z,6.20
2018-07-07T10:55:41.519Z,6.37
2018-07-07T10:58:10.620Z,6.60
2018-07-07T11:00:39.720Z,5.23
2018-07-07T11:03:08.956Z,6.10
2018-07-07T11:05:38.034Z,6.67
2018-07-07T11:08:07.302Z,5.40
2018-07-07T11:10:36.777Z,5.73
2018-07-07T11:13:06.274Z,5.83
2018-07-07T11:15:35.438Z,5.83
2018-07-07T11:18:04.272Z,5.70
2018-07-07T11:20:33.263Z,6.57
2018-07-07T11:23:02.538Z,5.00
2018-07-07T11:25:31.818Z,4.87
2018-07-07T11:28:00.930Z,5.20
2018-07-07T11:30:30.027Z,5.63
2018-07-07T11:32:59.466Z,5.60
2018-07-07T11:35:28.599Z,6.17
2018-07-07T11:37:57.438Z,6.20
2018-07-07T11:40:26.606Z,6.00
2018-07-07T11:42:55.733Z,5.80
2018-07-07T11:45:24.837Z,6.47
2018-07-07T11:47:54.630Z,6.20
2018-07-07T11:50:23.766Z,5.10
2018-07-07T11:52:52.856Z,4.97
2018-07-07T11:55:22.214Z,4.60
2018-07-07T11:57:51.382Z,5.40
2018-07-07T12:00:20.128Z,4.83
2018-07-07T12:02:49.554Z,4.90
2018-07-07T12:05:18.702Z,4.97
2018-07-07T12:08:00.710Z,4.20
2018-07-07T12:10:17.890Z,4.27
2018-07-07T12:12:46.975Z,4.10
2018-07-07T12:15:16.135Z,4.57
2018-07-07T12:17:45.408Z,4.40
2018-07-07T12:20:14.547Z,4.27
2018-07-07T12:22:43.699Z,3.73
2018-07-07T12:25:13.019Z,4.10
2018-07-07T12:27:42.131Z,3.93
2018-07-07T12:30:11.233Z,2.83
2018-07-07T12:32:40.400Z,3.60
2018-07-07T12:35:09.504Z,3.60
2018-07-07T12:37:38.619Z,3.90
2018-07-07T12:40:08.215Z,3.53
2018-07-07T12:42:37.323Z,4.20
2018-07-07T12:45:06.410Z,3.60
2018-07-07T12:47:36.061Z,4.00
2018-07-07T12:50:05.250Z,4.43
2018-07-07T12:52:34.355Z,3.93
2018-07-07T12:55:03.765Z,3.60
2018-07-07T12:57:32.872Z,3.73
2018-07-07T13:00:02.091Z,4.00
2018-07-07T13:02:31.501Z,4.23
2018-07-07T13:05:00.575Z,4.00
2018-07-07T13:07:29.697Z,3.57
2018-07-07T13:09:59.084Z,3.50
2018-07-07T13:12:28.251Z,3.97
2018-07-07T13:14:57.430Z,3.63
2018-07-07T13:17:26.709Z,3.80
2018-07-07T13:19:55.764Z,4.23
2018-07-07T13:22:24.939Z,4.40
2018-07-07T13:24:54.285Z,4.10
2018-07-07T13:27:23.856Z,4.30
2018-07-07T13:29:52.984Z,4.30
2018-07-07T13:32:22.136Z,4.00
2018-07-07T13:34:51.260Z,4.80
2018-07-07T13:37:20.383Z,3.93
2018-07-07T13:39:49.540Z,4.10
2018-07-07T13:42:18.621Z,4.00
2018-07-07T13:44:47.760Z,4.10
2018-07-07T13:47:17.043Z,4.67
2018-07-07T13:49:46.144Z,4.03
2018-07-07T13:52:15.226Z,3.63
2018-07-07T13:54:44.200Z,3.70
2018-07-07T13:57:13.334Z,3.70
2018-07-07T13:59:42.515Z,3.50
2018-07-07T14:02:12.044Z,3.67
2018-07-07T14:04:41.115Z,3.80
2018-07-07T14:07:10.224Z,3.90
2018-07-07T14:09:40.113Z,3.60
2018-07-07T14:12:09.287Z,4.00
2018-07-07T14:14:38.451Z,3.70
2018-07-07T14:17:08.091Z,3.73
2018-07-07T14:19:37.143Z,3.70
2018-07-07T14:22:06.669Z,3.80
2018-07-07T14:24:35.820Z,3.70
2018-07-07T14:27:04.939Z,4.20
2018-07-07T14:29:34.029Z,4.00
2018-07-07T14:32:03.555Z,3.90
2018-07-07T14:34:32.665Z,3.80
2018-07-07T14:37:01.773Z,4.27
2018-07-07T14:39:49.849Z,4.60
2018-07-07T14:42:50.610Z,4.20
2018-07-07T14:45:22.706Z,4.40
2018-07-07T14:47:52.811Z,4.63
2018-07-07T14:50:22.120Z,4.43
2018-07-07T14:52:51.183Z,4.57
2018-07-07T14:55:21.725Z,4.83
2018-07-07T14:57:51.075Z,4.07
2018-07-07T15:00:22.295Z,5.87
2018-07-07T15:02:52.887Z,6.00
2018-07-07T15:05:22.015Z,5.97
2018-07-07T15:07:51.229Z,5.90
2018-07-07T15:10:20.637Z,6.50
2018-07-07T15:12:49.833Z,6.60
2018-07-07T15:15:19.281Z,6.07
2018-07-07T15:17:48.601Z,6.30
2018-07-07T15:20:17.714Z,6.10
2018-07-07T15:22:46.935Z,6.67
2018-07-07T15:25:16.266Z,7.27
2018-07-07T15:27:45.384Z,7.60
2018-07-07T15:30:14.573Z,7.37
2018-07-07T15:32:44.029Z,6.60
2018-07-07T15:35:13.139Z,6.33
2018-07-07T15:37:42.301Z,6.83
2018-07-07T15:40:11.172Z,6.53
2018-07-07T15:42:40.183Z,7.10
2018-07-07T15:45:08.981Z,6.80
2018-07-07T15:47:38.441Z,6.83
2018-07-07T15:50:07.615Z,8.00
2018-07-07T15:52:36.739Z,7.07
2018-07-07T15:55:06.945Z,7.37
2018-07-07T15:57:36.041Z,7.00
2018-07-07T16:00:06.309Z,9.93
2018-07-07T16:02:35.823Z,11.57
2018-07-07T16:05:05.339Z,57.83
2018-07-07T16:07:34.435Z,11.17
2018-07-07T16:10:04.292Z,8.33
2018-07-07T16:12:33.781Z,7.10
2018-07-07T16:15:02.908Z,7.40
2018-07-07T16:17:32.183Z,7.27
2018-07-07T16:20:01.345Z,7.27
2018-07-07T16:22:30.717Z,6.80
2018-07-07T16:25:00.080Z,6.70
2018-07-07T16:27:29.340Z,7.00
2018-07-07T16:29:58.639Z,6.97
2018-07-07T16:32:28.055Z,6.57
2018-07-07T16:34:57.929Z,6.80
2018-07-07T16:37:26.737Z,7.47
2018-07-07T16:39:56.714Z,7.30
2018-07-07T16:42:25.961Z,7.43
2018-07-07T16:44:55.128Z,6.40
2018-07-07T16:47:24.205Z,6.77
2018-07-07T16:49:53.417Z,7.13
2018-07-07T16:52:22.602Z,7.60
2018-07-07T16:54:52.071Z,6.83
2018-07-07T16:57:21.229Z,6.23
2018-07-07T16:59:50.355Z,6.30
2018-07-07T17:02:20.129Z,6.73
2018-07-07T17:04:50.236Z,6.20
2018-07-07T17:07:20.103Z,6.80
2018-07-07T17:09:49.829Z,6.00
2018-07-07T17:12:19.837Z,6.50
2018-07-07T17:14:49.513Z,6.77
2018-07-07T17:17:19.381Z,6.50
2018-07-07T17:19:48.572Z,6.50
2018-07-07T17:22:17.749Z,6.20
2018-07-07T17:24:47.077Z,6.53
2018-07-07T17:27:16.273Z,6.83
2018-07-07T17:29:45.507Z,6.57
2018-07-07T17:32:14.919Z,6.23
2018-07-07T17:34:43.681Z,6.20
2018-07-07T17:37:12.399Z,6.50
2018-07-07T17:39:41.560Z,6.53
2018-07-07T17:42:10.984Z,6.57
2018-07-07T17:44:40.101Z,6.30
2018-07-07T17:47:09.492Z,6.70
2018-07-07T17:49:39.222Z,6.70
2018-07-07T17:52:08.287Z,6.40
2018-07-07T17:54:37.688Z,7.57
2018-07-07T17:57:06.748Z,7.43
2018-07-07T17:59:36.325Z,6.13
2018-07-07T18:02:05.724Z,6.07
2018-07-07T18:04:35.203Z,6.00
2018-07-07T18:07:04.263Z,6.50
2018-07-07T18:09:33.505Z,6.60
2018-07-07T18:12:02.796Z,6.37
2018-07-07T18:14:31.831Z,6.60
2018-07-07T18:17:01.520Z,6.20
2018-07-07T18:19:30.588Z,6.30
2018-07-07T18:21:59.661Z,6.13
2018-07-07T18:24:29.009Z,5.77
2018-07-07T18:26:58.138Z,5.70
2018-07-07T18:29:27.252Z,6.47
2018-07-07T18:31:56.432Z,5.70
2018-07-07T18:34:25.504Z,6.00
2018-07-07T18:36:54.636Z,6.67
2018-07-07T18:39:24.155Z,7.90
2018-07-07T18:41:52.931Z,6.00
2018-07-07T18:44:22.527Z,6.60
2018-07-07T18:46:51.716Z,7.70
2018-07-07T18:49:20.874Z,7.30
2018-07-07T18:51:49.962Z,7.30
2018-07-07T18:54:19.233Z,7.10
2018-07-07T18:56:48.463Z,6.67
2018-07-07T18:59:17.528Z,7.10
2018-07-07T19:01:46.781Z,6.57
2018-07-07T19:04:15.906Z,7.40
2018-07-07T19:06:45.066Z,7.53
2018-07-07T19:09:15.985Z,7.90
2018-07-07T19:11:45.119Z,7.00
2018-07-07T19:14:14.255Z,7.77
2018-07-07T19:16:43.516Z,8.17
2018-07-07T19:19:12.810Z,8.30
2018-07-07T19:21:47.085Z,7.67
2018-07-07T19:24:21.650Z,8.30
2018-07-07T19:26:52.379Z,8.63
2018-07-07T19:29:22.466Z,8.30
2018-07-07T19:31:57.301Z,8.47
2018-07-07T19:34:31.635Z,7.83
2018-07-07T19:37:06.339Z,9.07
2018-07-07T19:39:35.527Z,8.20
2018-07-07T19:42:04.857Z,9.30
2018-07-07T19:44:34.026Z,8.90
2018-07-07T19:47:03.205Z,9.50
2018-07-07T19:49:32.921Z,9.10
2018-07-07T19:52:01.963Z,8.50
2018-07-07T19:54:31.047Z,8.70
2018-07-07T19:57:00.142Z,8.87
2018-07-07T19:59:29.167Z,8.30
2018-07-07T20:01:58.273Z,9.00
2018-07-07T20:04:27.513Z,9.00
2018-07-07T20:06:56.600Z,8.90
2018-07-07T20:09:25.735Z,10.07
2018-07-07T20:11:55.069Z,9.60
2018-07-07T20:14:26.640Z,9.60
2018-07-07T20:17:09.049Z,10.00
2018-07-07T20:20:58.279Z,10.03
2018-07-07T20:23:29.254Z,10.43
2018-07-07T20:26:04.401Z,11.03
2018-07-07T20:28:38.822Z,10.07
2018-07-07T20:31:07.873Z,10.47
2018-07-07T20:33:37.070Z,11.37
2018-07-07T20:36:06.217Z,10.53
2018-07-07T20:38:35.302Z,10.83
2018-07-07T20:41:04.565Z,10.53
2018-07-07T20:43:33.887Z,10.60
2018-07-07T20:46:03.060Z,11.37
2018-07-07T20:48:32.268Z,10.33
2018-07-07T20:51:01.373Z,10.30
2018-07-07T20:53:30.157Z,11.20
2018-07-07T20:55:58.903Z,10.70
2018-07-07T20:58:27.946Z,11.20
2018-07-07T21:00:57.029Z,11.23
2018-07-07T21:03:26.291Z,11.23
2018-07-07T21:05:55.407Z,11.07
2018-07-07T21:08:24.526Z,11.50
2018-07-07T21:10:53.719Z,11.17
2018-07-07T21:13:22.795Z,11.50
2018-07-07T21:15:51.920Z,11.70
2018-07-07T21:18:20.766Z,11.80
2018-07-07T21:20:49.815Z,11.57
2018-07-07T21:23:19.075Z,12.53
2018-07-07T21:25:48.260Z,11.60
2018-07-07T21:28:17.348Z,12.63
2018-07-07T21:30:46.459Z,11.10
2018-07-07T21:33:15.697Z,11.77
2018-07-07T21:35:44.817Z,11.97
2018-07-07T21:38:13.984Z,12.47
2018-07-07T21:40:43.887Z,10.93
2018-07-07T21:43:12.982Z,12.30
2018-07-07T21:45:42.144Z,12.37
2018-07-07T21:48:11.402Z,12.57
2018-07-07T21:50:40.554Z,11.87
2018-07-07T21:53:09.686Z,12.10
2018-07-07T21:55:39.286Z,11.33
2018-07-07T21:58:13.854Z,13.00
2018-07-07T22:02:02.635Z,12.23
2018-07-07T22:04:37.762Z,12.80
2018-07-07T22:07:13.308Z,13.07
2018-07-07T22:09:43.503Z,12.53
2018-07-07T22:12:12.718Z,12.83
2018-07-07T22:14:41.846Z,13.10
2018-07-07T22:17:11.308Z,13.33
2018-07-07T22:19:40.415Z,13.77
2018-07-07T22:22:10.393Z,12.43
2018-07-07T22:24:40.998Z,13.40
2018-07-07T22:27:11.296Z,12.73
2018-07-07T22:29:40.614Z,13.60
2018-07-07T22:32:15.193Z,13.83
2018-07-07T22:34:44.537Z,13.43
2018-07-07T22:37:13.676Z,13.30
2018-07-07T22:39:43.386Z,13.27
2018-07-07T22:42:14.940Z,12.57
2018-07-07T22:44:45.133Z,13.73
2018-07-07T22:47:14.477Z,13.97
2018-07-07T22:49:43.614Z,14.57
2018-07-07T22:52:12.780Z,14.07
2018-07-07T22:54:41.760Z,14.27
2018-07-07T22:57:10.797Z,13.90
2018-07-07T22:59:39.952Z,14.27
2018-07-07T23:02:09.221Z,13.43
2018-07-07T23:04:38.338Z,13.93
2018-07-07T23:07:07.963Z,13.33
2018-07-07T23:09:37.249Z,13.43
2018-07-07T23:12:06.419Z,14.33
2018-07-07T23:14:35.498Z,14.13
2018-07-07T23:17:06.322Z,14.00
2018-07-07T23:19:35.457Z,13.67
2018-07-07T23:22:04.218Z,14.60
2018-07-07T23:24:33.220Z,14.30
2018-07-07T23:27:02.121Z,14.67
2018-07-07T23:29:31.122Z,14.13
2018-07-07T23:31:59.963Z,13.50
2018-07-07T23:34:29.121Z,14.50
2018-07-07T23:36:57.872Z,14.93
2018-07-07T23:39:27.326Z,14.73
2018-07-07T23:41:56.487Z,14.30
2018-07-07T23:44:25.591Z,14.07
2018-07-07T23:46:54.955Z,14.20
2018-07-07T23:49:24.136Z,14.53
2018-07-07T23:51:53.434Z,14.97
2018-07-07T23:54:22.774Z,15.77
2018-07-07T23:56:51.899Z,14.50
2018-07-07T23:59:21.025Z,16.47
